sensor_id;sensor_type;location;lat;lon;timestamp;pressure;altitude;pressure_sealevel;temperature;humidity
73457;BME280;61691;53.072;6.582;2023-03-14T00:01:27;98640.66;;;9.10;73.05
73457;BME280;61691;53.072;6.582;2023-03-14T00:03:54;98692.81;;;9.39;73.01
73457;BME280;61691;53.072;6.582;2023-03-14T00:06:21;98682.22;;;9.39;72.95
73457;BME280;61691;53.072;6.582;2023-03-14T00:08:48;98676.03;;;9.46;73.08
73457;BME280;61691;53.072;6.582;2023-03-14T00:11:18;98673.00;;;9.49;73.16
73457;BME280;61691;53.072;6.582;2023-03-14T00:13:48;98671.00;;;9.51;73.12
73457;BME280;61691;53.072;6.582;2023-03-14T00:16:15;98665.38;;;9.54;72.81
73457;BME280;61691;53.072;6.582;2023-03-14T00:18:42;98674.84;;;9.63;73.27
73457;BME280;61691;53.072;6.582;2023-03-14T00:21:10;98662.75;;;9.69;72.64
73457;BME280;61691;53.072;6.582;2023-03-14T00:23:39;98664.09;;;9.80;72.76
73457;BME280;61691;53.072;6.582;2023-03-14T00:26:12;98670.28;;;9.87;73.26
73457;BME280;61691;53.072;6.582;2023-03-14T00:28:39;98662.00;;;9.90;72.59
73457;BME280;61691;53.072;6.582;2023-03-14T00:31:07;98664.91;;;9.95;72.76
73457;BME280;61691;53.072;6.582;2023-03-14T00:33:35;98656.44;;;9.99;72.25
73457;BME280;61691;53.072;6.582;2023-03-14T00:36:04;98573.50;;;9.48;72.28
73457;BME280;61691;53.072;6.582;2023-03-14T00:38:32;98660.00;;;10.06;72.01
73457;BME280;61691;53.072;6.582;2023-03-14T00:40:59;98636.72;;;10.02;71.97
73457;BME280;61691;53.072;6.582;2023-03-14T00:43:29;98647.19;;;10.10;72.08
73457;BME280;61691;53.072;6.582;2023-03-14T00:45:55;98639.25;;;10.10;71.82
73457;BME280;61691;53.072;6.582;2023-03-14T00:48:23;98612.25;;;10.00;72.21
73457;BME280;61691;53.072;6.582;2023-03-14T00:50:50;98636.19;;;10.21;71.58
73457;BME280;61691;53.072;6.582;2023-03-14T00:53:17;98622.72;;;10.23;71.55
73457;BME280;61691;53.072;6.582;2023-03-14T00:55:44;98600.09;;;10.20;71.78
73457;BME280;61691;53.072;6.582;2023-03-14T00:58:12;98594.63;;;10.22;71.55
73457;BME280;61691;53.072;6.582;2023-03-14T01:00:40;98620.59;;;10.33;71.45
73457;BME280;61691;53.072;6.582;2023-03-14T01:03:08;98623.44;;;10.31;71.48
73457;BME280;61691;53.072;6.582;2023-03-14T01:05:35;98612.59;;;10.26;71.02
73457;BME280;61691;53.072;6.582;2023-03-14T01:08:03;98629.38;;;10.33;71.02
73457;BME280;61691;53.072;6.582;2023-03-14T01:10:30;98606.31;;;10.13;71.31
73457;BME280;61691;53.072;6.582;2023-03-14T01:12:57;98606.72;;;10.16;71.41
73457;BME280;61691;53.072;6.582;2023-03-14T01:15:23;98606.94;;;10.15;71.06
73457;BME280;61691;53.072;6.582;2023-03-14T01:17:50;98609.69;;;10.21;71.43
73457;BME280;61691;53.072;6.582;2023-03-14T01:20:17;98631.78;;;10.28;71.35
73457;BME280;61691;53.072;6.582;2023-03-14T01:22:44;98609.50;;;10.08;71.13
73457;BME280;61691;53.072;6.582;2023-03-14T01:25:16;98642.78;;;10.32;71.02
73457;BME280;61691;53.072;6.582;2023-03-14T01:27:43;98626.19;;;10.23;71.49
73457;BME280;61691;53.072;6.582;2023-03-14T01:30:11;98621.28;;;10.20;70.88
73457;BME280;61691;53.072;6.582;2023-03-14T01:32:38;98644.09;;;10.36;71.44
73457;BME280;61691;53.072;6.582;2023-03-14T01:35:06;98613.78;;;10.24;71.09
73457;BME280;61691;53.072;6.582;2023-03-14T01:37:33;98620.59;;;10.33;71.34
73457;BME280;61691;53.072;6.582;2023-03-14T01:40:00;98608.31;;;10.25;71.31
73457;BME280;61691;53.072;6.582;2023-03-14T01:42:26;98638.47;;;10.45;71.00
73457;BME280;61691;53.072;6.582;2023-03-14T01:44:55;98643.03;;;10.52;70.76
73457;BME280;61691;53.072;6.582;2023-03-14T01:47:22;98625.09;;;10.54;70.72
73457;BME280;61691;53.072;6.582;2023-03-14T01:52:29;98641.38;;;10.51;70.77
73457;BME280;61691;53.072;6.582;2023-03-14T01:57:38;98612.59;;;10.26;70.72
73457;BME280;61691;53.072;6.582;2023-03-14T02:00:09;98641.13;;;10.45;70.62
73457;BME280;61691;53.072;6.582;2023-03-14T02:02:40;98635.19;;;10.43;70.79
73457;BME280;61691;53.072;6.582;2023-03-14T02:05:08;98638.47;;;10.45;70.62
73457;BME280;61691;53.072;6.582;2023-03-14T02:07:47;98613.50;;;10.33;70.70
73457;BME280;61691;53.072;6.582;2023-03-14T02:10:17;98638.47;;;10.45;70.74
73457;BME280;61691;53.072;6.582;2023-03-14T02:12:47;98588.94;;;10.25;70.85
73457;BME280;61691;53.072;6.582;2023-03-14T02:15:14;98618.03;;;10.39;70.84
73457;BME280;61691;53.072;6.582;2023-03-14T02:17:42;98622.22;;;10.48;70.82
73457;BME280;61691;53.072;6.582;2023-03-14T02:22:52;98610.97;;;10.46;70.76
73457;BME280;61691;53.072;6.582;2023-03-14T02:28:04;98597.25;;;10.36;71.03
73457;BME280;61691;53.072;6.582;2023-03-14T02:30:32;98579.06;;;10.33;71.18
73457;BME280;61691;53.072;6.582;2023-03-14T02:33:11;98610.72;;;10.41;70.92
73457;BME280;61691;53.072;6.582;2023-03-14T02:35:44;98610.72;;;10.41;70.85
73457;BME280;61691;53.072;6.582;2023-03-14T02:38:50;98620.69;;;10.39;70.96
73457;BME280;61691;53.072;6.582;2023-03-14T02:41:21;98598.88;;;10.37;70.91
73457;BME280;61691;53.072;6.582;2023-03-14T02:43:48;98555.28;;;10.04;71.01
73457;BME280;61691;53.072;6.582;2023-03-14T02:46:20;98596.59;;;10.34;71.46
73457;BME280;61691;53.072;6.582;2023-03-14T02:48:58;98595.13;;;10.32;71.20
73457;BME280;61691;53.072;6.582;2023-03-14T02:51:27;98592.59;;;10.24;71.56
73457;BME280;61691;53.072;6.582;2023-03-14T02:53:55;98585.66;;;10.23;71.32
73457;BME280;61691;53.072;6.582;2023-03-14T02:56:21;98566.41;;;10.14;71.46
73457;BME280;61691;53.072;6.582;2023-03-14T02:58:48;98583.59;;;10.18;71.67
73457;BME280;61691;53.072;6.582;2023-03-14T03:01:15;98579.94;;;10.19;71.64
73457;BME280;61691;53.072;6.582;2023-03-14T03:03:41;98593.41;;;10.24;71.81
73457;BME280;61691;53.072;6.582;2023-03-14T03:06:08;98583.22;;;10.21;72.13
73457;BME280;61691;53.072;6.582;2023-03-14T03:08:35;98578.34;;;10.25;71.73
73457;BME280;61691;53.072;6.582;2023-03-14T03:11:02;98578.75;;;10.22;71.86
73457;BME280;61691;53.072;6.582;2023-03-14T03:13:28;98547.72;;;10.01;72.52
73457;BME280;61691;53.072;6.582;2023-03-14T03:15:55;98562.66;;;10.08;72.05
73457;BME280;61691;53.072;6.582;2023-03-14T03:18:22;98583.91;;;10.15;72.21
73457;BME280;61691;53.072;6.582;2023-03-14T03:20:48;98581.47;;;10.14;72.96
73457;BME280;61691;53.072;6.582;2023-03-14T03:23:16;98599.00;;;10.15;73.03
73457;BME280;61691;53.072;6.582;2023-03-14T03:25:48;98577.09;;;10.06;72.99
73457;BME280;61691;53.072;6.582;2023-03-14T03:28:15;98576.56;;;9.96;73.26
73457;BME280;61691;53.072;6.582;2023-03-14T03:30:42;98595.81;;;10.04;73.59
73457;BME280;61691;53.072;6.582;2023-03-14T03:33:10;98581.63;;;9.91;73.81
73457;BME280;61691;53.072;6.582;2023-03-14T03:35:49;98584.50;;;9.96;74.43
73457;BME280;61691;53.072;6.582;2023-03-14T03:38:17;98583.25;;;9.92;74.26
73457;BME280;61691;53.072;6.582;2023-03-14T03:40:43;98597.09;;;9.94;74.33
73457;BME280;61691;53.072;6.582;2023-03-14T03:43:10;98591.91;;;9.86;75.03
73457;BME280;61691;53.072;6.582;2023-03-14T03:45:37;98580.06;;;9.82;74.70
73457;BME280;61691;53.072;6.582;2023-03-14T03:48:04;98577.78;;;9.79;75.18
73457;BME280;61691;53.072;6.582;2023-03-14T03:50:31;98605.16;;;9.86;75.30
73457;BME280;61691;53.072;6.582;2023-03-14T03:52:57;98566.69;;;9.68;75.39
73457;BME280;61691;53.072;6.582;2023-03-14T03:55:24;98591.09;;;9.70;75.69
73457;BME280;61691;53.072;6.582;2023-03-14T03:57:52;98553.91;;;9.57;76.46
73457;BME280;61691;53.072;6.582;2023-03-14T04:00:19;98584.63;;;9.73;75.87
73457;BME280;61691;53.072;6.582;2023-03-14T04:02:45;98587.03;;;9.68;75.93
73457;BME280;61691;53.072;6.582;2023-03-14T04:05:12;98584.56;;;9.66;76.62
73457;BME280;61691;53.072;6.582;2023-03-14T04:07:39;98579.63;;;9.63;76.75
73457;BME280;61691;53.072;6.582;2023-03-14T04:10:06;98601.34;;;9.74;76.21
73457;BME280;61691;53.072;6.582;2023-03-14T04:12:33;98569.78;;;9.57;76.50
73457;BME280;61691;53.072;6.582;2023-03-14T04:14:59;98594.22;;;9.59;76.46
73457;BME280;61691;53.072;6.582;2023-03-14T04:17:26;98602.81;;;9.61;76.92
73457;BME280;61691;53.072;6.582;2023-03-14T04:19:53;98606.72;;;9.65;77.42
73457;BME280;61691;53.072;6.582;2023-03-14T04:22:20;98592.94;;;9.55;77.35
73457;BME280;61691;53.072;6.582;2023-03-14T04:24:47;98598.88;;;9.57;77.30
73457;BME280;61691;53.072;6.582;2023-03-14T04:27:13;98590.28;;;9.55;77.39
73457;BME280;61691;53.072;6.582;2023-03-14T04:29:42;98606.81;;;9.57;77.54
73457;BME280;61691;53.072;6.582;2023-03-14T04:32:09;98566.41;;;9.34;77.84
73457;BME280;61691;53.072;6.582;2023-03-14T04:34:36;98582.44;;;9.47;77.79
73457;BME280;61691;53.072;6.582;2023-03-14T04:37:02;98587.47;;;9.42;78.05
73457;BME280;61691;53.072;6.582;2023-03-14T04:39:29;98583.19;;;9.41;78.10
73457;BME280;61691;53.072;6.582;2023-03-14T04:41:56;98576.91;;;9.42;78.63
73457;BME280;61691;53.072;6.582;2023-03-14T04:44:23;98584.66;;;9.44;78.34
73457;BME280;61691;53.072;6.582;2023-03-14T04:46:49;98552.28;;;9.27;78.73
73457;BME280;61691;53.072;6.582;2023-03-14T04:49:16;98566.69;;;9.39;79.43
73457;BME280;61691;53.072;6.582;2023-03-14T04:51:43;98571.16;;;9.39;78.81
73457;BME280;61691;53.072;6.582;2023-03-14T04:54:10;98570.34;;;9.38;79.39
73457;BME280;61691;53.072;6.582;2023-03-14T04:56:36;98573.16;;;9.37;79.28
73457;BME280;61691;53.072;6.582;2023-03-14T04:59:03;98573.34;;;9.35;79.64
73457;BME280;61691;53.072;6.582;2023-03-14T05:01:30;98581.34;;;9.42;79.69
73457;BME280;61691;53.072;6.582;2023-03-14T05:03:57;98567.41;;;9.33;79.34
73457;BME280;61691;53.072;6.582;2023-03-14T05:06:24;98545.72;;;9.23;79.71
73457;BME280;61691;53.072;6.582;2023-03-14T05:08:51;98543.34;;;9.28;80.13
73457;BME280;61691;53.072;6.582;2023-03-14T05:11:17;98563.41;;;9.37;79.96
73457;BME280;61691;53.072;6.582;2023-03-14T05:13:44;98539.63;;;9.22;79.82
73457;BME280;61691;53.072;6.582;2023-03-14T05:16:11;98567.06;;;9.36;80.45
73457;BME280;61691;53.072;6.582;2023-03-14T05:18:38;98561.75;;;9.36;80.20
73457;BME280;61691;53.072;6.582;2023-03-14T05:21:05;98554.84;;;9.35;79.76
73457;BME280;61691;53.072;6.582;2023-03-14T05:23:32;98549.94;;;9.32;80.01
73457;BME280;61691;53.072;6.582;2023-03-14T05:25:58;98509.34;;;9.10;80.19
73457;BME280;61691;53.072;6.582;2023-03-14T05:28:25;98555.66;;;9.36;80.31
73457;BME280;61691;53.072;6.582;2023-03-14T05:30:52;98528.41;;;9.20;80.36
73457;BME280;61691;53.072;6.582;2023-03-14T05:33:18;98561.41;;;9.39;80.16
73457;BME280;61691;53.072;6.582;2023-03-14T05:35:45;98542.09;;;9.24;80.23
73457;BME280;61691;53.072;6.582;2023-03-14T05:38:12;98571.16;;;9.39;80.37
73457;BME280;61691;53.072;6.582;2023-03-14T05:40:38;98566.06;;;9.37;80.36
73457;BME280;61691;53.072;6.582;2023-03-14T05:43:05;98496.59;;;8.99;80.61
73457;BME280;61691;53.072;6.582;2023-03-14T05:45:34;98544.63;;;9.32;80.76
73457;BME280;61691;53.072;6.582;2023-03-14T05:48:02;98545.00;;;9.29;80.72
73457;BME280;61691;53.072;6.582;2023-03-14T05:50:29;98553.34;;;9.32;81.29
73457;BME280;61691;53.072;6.582;2023-03-14T05:52:56;98545.00;;;9.29;81.02
73457;BME280;61691;53.072;6.582;2023-03-14T05:55:22;98540.44;;;9.23;81.00
73457;BME280;61691;53.072;6.582;2023-03-14T05:57:49;98528.84;;;9.09;81.31
73457;BME280;61691;53.072;6.582;2023-03-14T06:00:16;98561.84;;;9.28;81.53
73457;BME280;61691;53.072;6.582;2023-03-14T06:02:43;98556.28;;;9.23;81.48
73457;BME280;61691;53.072;6.582;2023-03-14T06:05:10;98532.94;;;9.12;81.43
73457;BME280;61691;53.072;6.582;2023-03-14T06:07:37;98553.91;;;9.28;81.51
73457;BME280;61691;53.072;6.582;2023-03-14T06:10:05;98540.03;;;9.11;81.38
73457;BME280;61691;53.072;6.582;2023-03-14T06:12:31;98569.78;;;9.28;81.53
73457;BME280;61691;53.072;6.582;2023-03-14T06:14:58;98545.16;;;9.13;81.81
73457;BME280;61691;53.072;6.582;2023-03-14T06:17:25;98570.59;;;9.28;81.50
73457;BME280;61691;53.072;6.582;2023-03-14T06:19:52;98543.44;;;9.20;81.74
73457;BME280;61691;53.072;6.582;2023-03-14T06:22:18;98570.03;;;9.33;81.80
73457;BME280;61691;53.072;6.582;2023-03-14T06:24:45;98579.63;;;9.34;81.83
73457;BME280;61691;53.072;6.582;2023-03-14T06:27:12;98555.38;;;9.16;81.74
73457;BME280;61691;53.072;6.582;2023-03-14T06:29:39;98573.41;;;9.27;81.98
73457;BME280;61691;53.072;6.582;2023-03-14T06:32:06;98566.88;;;9.23;81.61
73457;BME280;61691;53.072;6.582;2023-03-14T06:34:32;98582.28;;;9.34;82.01
73457;BME280;61691;53.072;6.582;2023-03-14T06:36:59;98602.41;;;9.35;81.82
73457;BME280;61691;53.072;6.582;2023-03-14T06:39:26;98587.84;;;9.24;81.84
73457;BME280;61691;53.072;6.582;2023-03-14T06:41:52;98610.09;;;9.30;82.02
73457;BME280;61691;53.072;6.582;2023-03-14T06:44:19;98617.03;;;9.31;82.28
73457;BME280;61691;53.072;6.582;2023-03-14T06:46:46;98623.31;;;9.30;82.32
73457;BME280;61691;53.072;6.582;2023-03-14T06:49:12;98654.66;;;9.33;82.33
73457;BME280;61691;53.072;6.582;2023-03-14T06:51:39;98683.19;;;9.23;81.87
73457;BME280;61691;53.072;6.582;2023-03-14T06:54:06;98699.13;;;9.15;81.47
73457;BME280;61691;53.072;6.582;2023-03-14T06:56:32;98683.78;;;8.87;81.29
73457;BME280;61691;53.072;6.582;2023-03-14T06:58:59;98701.75;;;8.69;81.26
73457;BME280;61691;53.072;6.582;2023-03-14T07:01:28;98725.56;;;8.61;80.98
73457;BME280;61691;53.072;6.582;2023-03-14T07:03:56;98757.31;;;8.45;80.77
73457;BME280;61691;53.072;6.582;2023-03-14T07:06:23;98753.78;;;8.13;79.90
73457;BME280;61691;53.072;6.582;2023-03-14T07:08:51;98757.50;;;7.80;80.17
73457;BME280;61691;53.072;6.582;2023-03-14T07:11:17;98739.75;;;7.42;80.32
73457;BME280;61691;53.072;6.582;2023-03-14T07:13:44;98728.22;;;7.10;79.76
73457;BME280;61691;53.072;6.582;2023-03-14T07:16:11;98766.75;;;7.11;80.01
73457;BME280;61691;53.072;6.582;2023-03-14T07:18:38;98788.13;;;7.00;80.17
73457;BME280;61691;53.072;6.582;2023-03-14T07:21:06;98831.28;;;6.99;80.19
73457;BME280;61691;53.072;6.582;2023-03-14T07:23:33;98798.84;;;6.56;79.49
73457;BME280;61691;53.072;6.582;2023-03-14T07:26:00;98833.09;;;6.56;79.75
73457;BME280;61691;53.072;6.582;2023-03-14T07:28:27;98838.75;;;6.36;79.05
73457;BME280;61691;53.072;6.582;2023-03-14T07:30:54;98862.09;;;6.31;79.62
73457;BME280;61691;53.072;6.582;2023-03-14T07:33:21;98841.84;;;6.05;80.17
73457;BME280;61691;53.072;6.582;2023-03-14T07:35:48;98846.16;;;5.89;79.54
73457;BME280;61691;53.072;6.582;2023-03-14T07:38:16;98894.16;;;6.08;78.99
73457;BME280;61691;53.072;6.582;2023-03-14T07:40:43;98898.97;;;5.95;79.36
73457;BME280;61691;53.072;6.582;2023-03-14T07:43:09;98888.69;;;5.66;79.17
73457;BME280;61691;53.072;6.582;2023-03-14T07:45:36;98938.09;;;5.80;79.16
73457;BME280;61691;53.072;6.582;2023-03-14T07:48:08;98882.13;;;5.35;78.48
73457;BME280;61691;53.072;6.582;2023-03-14T07:50:36;98959.28;;;5.61;78.35
73457;BME280;61691;53.072;6.582;2023-03-14T07:53:03;98942.00;;;5.41;78.70
73457;BME280;61691;53.072;6.582;2023-03-14T07:55:30;98948.41;;;5.29;78.46
73457;BME280;61691;53.072;6.582;2023-03-14T07:57:56;98987.63;;;5.40;78.18
73457;BME280;61691;53.072;6.582;2023-03-14T08:00:23;98991.72;;;5.25;78.62
73457;BME280;61691;53.072;6.582;2023-03-14T08:02:50;98917.69;;;4.84;78.77
73457;BME280;61691;53.072;6.582;2023-03-14T08:05:17;99011.19;;;5.32;78.79
73457;BME280;61691;53.072;6.582;2023-03-14T08:07:43;99014.78;;;5.31;78.47
73457;BME280;61691;53.072;6.582;2023-03-14T08:10:10;99019.06;;;5.32;79.16
73457;BME280;61691;53.072;6.582;2023-03-14T08:12:37;99019.22;;;5.30;78.46
73457;BME280;61691;53.072;6.582;2023-03-14T08:15:04;99018.66;;;5.27;78.68
73457;BME280;61691;53.072;6.582;2023-03-14T08:17:32;99035.78;;;5.31;78.91
73457;BME280;61691;53.072;6.582;2023-03-14T08:19:58;98996.94;;;4.97;78.45
73457;BME280;61691;53.072;6.582;2023-03-14T08:22:25;99057.63;;;5.41;78.72
73457;BME280;61691;53.072;6.582;2023-03-14T08:24:51;98995.38;;;5.04;78.41
73457;BME280;61691;53.072;6.582;2023-03-14T08:27:18;99067.81;;;5.44;78.30
73457;BME280;61691;53.072;6.582;2023-03-14T08:29:45;99078.63;;;5.41;78.43
73457;BME280;61691;53.072;6.582;2023-03-14T08:32:11;99101.38;;;5.50;78.48
73457;BME280;61691;53.072;6.582;2023-03-14T08:34:38;99100.38;;;5.61;78.92
73457;BME280;61691;53.072;6.582;2023-03-14T08:37:05;99111.94;;;5.77;78.54
73457;BME280;61691;53.072;6.582;2023-03-14T08:39:51;99078.19;;;5.73;78.59
73457;BME280;61691;53.072;6.582;2023-03-14T08:42:18;99129.84;;;6.01;78.10
73457;BME280;61691;53.072;6.582;2023-03-14T08:44:45;99099.84;;;5.84;77.75
73457;BME280;61691;53.072;6.582;2023-03-14T08:47:11;99114.78;;;5.94;78.25
73457;BME280;61691;53.072;6.582;2023-03-14T08:49:39;99135.91;;;6.02;78.12
73457;BME280;61691;53.072;6.582;2023-03-14T08:52:05;99096.69;;;5.81;77.81
73457;BME280;61691;53.072;6.582;2023-03-14T08:54:32;99149.00;;;6.11;76.98
73457;BME280;61691;53.072;6.582;2023-03-14T08:56:59;99150.66;;;6.12;77.20
73457;BME280;61691;53.072;6.582;2023-03-14T08:59:25;99157.97;;;6.18;77.21
73457;BME280;61691;53.072;6.582;2023-03-14T09:01:52;99156.75;;;6.13;77.13
73457;BME280;61691;53.072;6.582;2023-03-14T09:04:21;99168.94;;;6.14;76.91
73457;BME280;61691;53.072;6.582;2023-03-14T09:06:48;99202.63;;;6.28;76.90
73457;BME280;61691;53.072;6.582;2023-03-14T09:09:15;99212.19;;;6.29;76.44
73457;BME280;61691;53.072;6.582;2023-03-14T09:11:41;99224.06;;;6.33;76.22
73457;BME280;61691;53.072;6.582;2023-03-14T09:14:08;99184.63;;;6.06;76.39
73457;BME280;61691;53.072;6.582;2023-03-14T09:16:35;99229.66;;;6.30;75.69
73457;BME280;61691;53.072;6.582;2023-03-14T09:19:02;99261.47;;;6.54;75.31
73457;BME280;61691;53.072;6.582;2023-03-14T09:21:28;99232.38;;;6.38;75.41
73457;BME280;61691;53.072;6.582;2023-03-14T09:23:55;99280.50;;;6.76;75.83
73457;BME280;61691;53.072;6.582;2023-03-14T09:26:22;99259.97;;;6.79;75.91
73457;BME280;61691;53.072;6.582;2023-03-14T09:28:48;99276.06;;;6.94;74.22
73457;BME280;61691;53.072;6.582;2023-03-14T09:31:15;99285.72;;;7.03;73.48
73457;BME280;61691;53.072;6.582;2023-03-14T09:33:42;99298.44;;;7.08;73.12
73457;BME280;61691;53.072;6.582;2023-03-14T09:36:09;99309.81;;;7.08;73.25
73457;BME280;61691;53.072;6.582;2023-03-14T09:38:36;99319.50;;;7.08;73.57
73457;BME280;61691;53.072;6.582;2023-03-14T09:41:13;99330.28;;;7.14;72.76
73457;BME280;61691;53.072;6.582;2023-03-14T09:43:42;99334.88;;;7.12;73.46
73457;BME280;61691;53.072;6.582;2023-03-14T09:46:10;99331.47;;;7.02;73.27
73457;BME280;61691;53.072;6.582;2023-03-14T09:48:37;99373.69;;;7.20;72.75
73457;BME280;61691;53.072;6.582;2023-03-14T09:51:07;99364.47;;;7.06;72.45
73457;BME280;61691;53.072;6.582;2023-03-14T09:53:46;99362.41;;;7.00;70.87
73457;BME280;61691;53.072;6.582;2023-03-14T09:56:18;99388.66;;;6.92;70.72
73457;BME280;61691;53.072;6.582;2023-03-14T09:58:51;99409.56;;;6.76;65.80
73457;BME280;61691;53.072;6.582;2023-03-14T10:01:24;99405.06;;;6.86;69.31
73457;BME280;61691;53.072;6.582;2023-03-14T10:03:54;99392.56;;;6.88;69.14
73457;BME280;61691;53.072;6.582;2023-03-14T10:06:25;99429.94;;;7.01;68.23
73457;BME280;61691;53.072;6.582;2023-03-14T10:08:53;99392.84;;;6.85;69.14
73457;BME280;61691;53.072;6.582;2023-03-14T10:11:20;99431.97;;;7.07;67.69
73457;BME280;61691;53.072;6.582;2023-03-14T10:14:10;99452.59;;;7.21;67.88
73457;BME280;61691;53.072;6.582;2023-03-14T10:16:44;99479.22;;;7.18;66.87
73457;BME280;61691;53.072;6.582;2023-03-14T10:19:14;99468.72;;;7.09;66.67
73457;BME280;61691;53.072;6.582;2023-03-14T10:21:43;99466.72;;;6.93;65.67
73457;BME280;61691;53.072;6.582;2023-03-14T10:26:58;99501.75;;;7.03;65.32
73457;BME280;61691;53.072;6.582;2023-03-14T10:29:28;99505.09;;;7.05;65.03
73457;BME280;61691;53.072;6.582;2023-03-14T10:32:04;99518.69;;;7.00;64.64
73457;BME280;61691;53.072;6.582;2023-03-14T10:34:35;99546.53;;;7.13;64.68
73457;BME280;61691;53.072;6.582;2023-03-14T10:37:18;99526.81;;;7.17;62.76
73457;BME280;61691;53.072;6.582;2023-03-14T10:39:51;99534.28;;;7.21;62.77
73457;BME280;61691;53.072;6.582;2023-03-14T10:42:26;99542.00;;;7.32;62.37
73457;BME280;61691;53.072;6.582;2023-03-14T10:44:59;99564.88;;;7.42;61.39
73457;BME280;61691;53.072;6.582;2023-03-14T10:47:27;99569.56;;;7.48;62.23
73457;BME280;61691;53.072;6.582;2023-03-14T10:49:57;99576.28;;;7.60;61.63
73457;BME280;61691;53.072;6.582;2023-03-14T10:52:47;99585.56;;;7.64;61.37
73457;BME280;61691;53.072;6.582;2023-03-14T10:55:39;99563.03;;;7.52;59.11
73457;BME280;61691;53.072;6.582;2023-03-14T11:00:51;99610.50;;;7.79;59.21
73457;BME280;61691;53.072;6.582;2023-03-14T11:03:21;99612.44;;;7.77;58.18
73457;BME280;61691;53.072;6.582;2023-03-14T11:05:57;99659.91;;;7.77;57.29
73457;BME280;61691;53.072;6.582;2023-03-14T11:08:44;99652.47;;;7.63;57.02
73457;BME280;61691;53.072;6.582;2023-03-14T11:11:22;99663.88;;;7.63;57.48
73457;BME280;61691;53.072;6.582;2023-03-14T11:16:27;99690.56;;;7.51;54.82
73457;BME280;61691;53.072;6.582;2023-03-14T11:21:56;99685.56;;;7.48;51.09
73457;BME280;61691;53.072;6.582;2023-03-14T11:24:31;99714.09;;;7.71;53.75
73457;BME280;61691;53.072;6.582;2023-03-14T11:32:44;99736.91;;;8.00;53.24
73457;BME280;61691;53.072;6.582;2023-03-14T11:35:26;99742.91;;;7.92;51.81
73457;BME280;61691;53.072;6.582;2023-03-14T11:38:18;99739.19;;;7.75;50.69
73457;BME280;61691;53.072;6.582;2023-03-14T11:40:48;99749.22;;;7.72;51.42
73457;BME280;61691;53.072;6.582;2023-03-14T11:46:04;99757.00;;;7.64;51.59
73457;BME280;61691;53.072;6.582;2023-03-14T11:48:40;99802.22;;;7.88;50.62
73457;BME280;61691;53.072;6.582;2023-03-14T11:51:21;99796.69;;;7.72;47.58
73457;BME280;61691;53.072;6.582;2023-03-14T11:54:04;99800.19;;;7.53;45.57
73457;BME280;61691;53.072;6.582;2023-03-14T11:56:51;99812.41;;;7.45;47.16
73457;BME280;61691;53.072;6.582;2023-03-14T11:59:31;99787.44;;;7.29;47.89
73457;BME280;61691;53.072;6.582;2023-03-14T12:10:26;99826.56;;;7.63;46.97
73457;BME280;61691;53.072;6.582;2023-03-14T12:12:53;99832.09;;;7.60;47.34
73457;BME280;61691;53.072;6.582;2023-03-14T12:15:21;99853.34;;;7.68;47.00
73457;BME280;61691;53.072;6.582;2023-03-14T12:17:55;99850.56;;;7.79;47.36
73457;BME280;61691;53.072;6.582;2023-03-14T12:20:24;99861.66;;;7.92;47.05
73457;BME280;61691;53.072;6.582;2023-03-14T12:22:53;99866.91;;;8.11;47.52
73457;BME280;61691;53.072;6.582;2023-03-14T12:25:23;99843.94;;;8.12;47.43
73457;BME280;61691;53.072;6.582;2023-03-14T12:30:29;99873.06;;;8.49;46.79
73457;BME280;61691;53.072;6.582;2023-03-14T12:43:39;99908.69;;;8.26;47.00
73457;BME280;61691;53.072;6.582;2023-03-14T12:46:28;99913.81;;;8.27;46.87
73457;BME280;61691;53.072;6.582;2023-03-14T12:51:37;99861.50;;;7.94;45.70
73457;BME280;61691;53.072;6.582;2023-03-14T13:02:18;99946.09;;;8.77;45.87
73457;BME280;61691;53.072;6.582;2023-03-14T13:05:00;99942.88;;;8.83;46.32
73457;BME280;61691;53.072;6.582;2023-03-14T13:07:29;99944.94;;;8.89;46.09
73457;BME280;61691;53.072;6.582;2023-03-14T13:10:03;99879.59;;;8.45;46.33
73457;BME280;61691;53.072;6.582;2023-03-14T13:13:01;99964.16;;;8.82;45.64
73457;BME280;61691;53.072;6.582;2023-03-14T13:15:38;99980.34;;;8.69;46.47
73457;BME280;61691;53.072;6.582;2023-03-14T13:18:17;99989.81;;;8.62;46.83
73457;BME280;61691;53.072;6.582;2023-03-14T13:20:55;99976.50;;;8.44;46.81
73457;BME280;61691;53.072;6.582;2023-03-14T13:23:27;100013.19;;;8.38;46.43
73457;BME280;61691;53.072;6.582;2023-03-14T13:25:54;99984.16;;;8.19;46.49
73457;BME280;61691;53.072;6.582;2023-03-14T13:28:22;100034.56;;;8.15;45.95
73457;BME280;61691;53.072;6.582;2023-03-14T13:30:50;100025.41;;;8.00;44.80
73457;BME280;61691;53.072;6.582;2023-03-14T13:33:22;100039.72;;;7.88;44.77
73457;BME280;61691;53.072;6.582;2023-03-14T13:38:23;100035.88;;;7.62;43.22
73457;BME280;61691;53.072;6.582;2023-03-14T13:40:53;100020.41;;;7.38;42.95
73457;BME280;61691;53.072;6.582;2023-03-14T13:43:38;100026.63;;;7.27;42.45
73457;BME280;61691;53.072;6.582;2023-03-14T13:46:12;100061.97;;;7.55;42.51
73457;BME280;61691;53.072;6.582;2023-03-14T13:48:47;100064.06;;;7.52;44.00
73457;BME280;61691;53.072;6.582;2023-03-14T13:51:16;100069.16;;;7.53;44.08
73457;BME280;61691;53.072;6.582;2023-03-14T13:53:55;100059.75;;;7.51;44.31
73457;BME280;61691;53.072;6.582;2023-03-14T13:56:24;100068.97;;;7.66;44.79
73457;BME280;61691;53.072;6.582;2023-03-14T13:58:51;100062.56;;;7.59;44.24
73457;BME280;61691;53.072;6.582;2023-03-14T14:01:24;100089.22;;;7.75;44.17
73457;BME280;61691;53.072;6.582;2023-03-14T14:03:53;100089.50;;;7.72;44.39
73457;BME280;61691;53.072;6.582;2023-03-14T14:06:35;100102.16;;;7.78;44.26
73457;BME280;61691;53.072;6.582;2023-03-14T14:09:15;100120.09;;;7.84;44.23
73457;BME280;61691;53.072;6.582;2023-03-14T14:12:07;100111.78;;;7.89;45.50
73457;BME280;61691;53.072;6.582;2023-03-14T14:17:18;100146.00;;;8.09;45.11
73457;BME280;61691;53.072;6.582;2023-03-14T14:19:47;100109.59;;;8.03;44.58
73457;BME280;61691;53.072;6.582;2023-03-14T14:22:14;100137.69;;;8.24;44.56
73457;BME280;61691;53.072;6.582;2023-03-14T14:24:41;100109.59;;;8.03;44.21
73457;BME280;61691;53.072;6.582;2023-03-14T14:32:48;100139.03;;;8.08;43.59